Time;durP1;ratioP1;P1;durP2;ratioP2;P2;SDS_P1;SDS_P2;PMS_P1;PMS_P2;Temp;Humidity;BMP_temperature;BMP_pressure;BME280_temperature;BME280_humidity;BME280_pressure;Samples;Min_cycle;Max_cycle;Signal;HPM_P1;HPM_P2
2022/04/02 00:01:14;;;;;;;2.22;2.03;;;;;;;;;;5029158;28;20212;-80
2022/04/02 00:03:43;;;;;;;4.15;1.73;;;;;;;;;;5033415;28;20203;-80
2022/04/02 00:06:10;;;;;;;1.90;1.58;;;;;;;;;;5029341;28;20199;-80
2022/04/02 00:08:37;;;;;;;1.80;1.60;;;;;;;;;;5030029;28;20192;-79
2022/04/02 00:11:05;;;;;;;2.35;1.45;;;;;;;;;;5025243;28;20200;-80
2022/04/02 00:13:32;;;;;;;1.70;1.60;;;;;;;;;;5030432;28;20206;-80
2022/04/02 00:16:00;;;;;;;2.90;1.25;;;;;;;;;;5028238;28;20195;-80
2022/04/02 00:18:29;;;;;;;3.00;2.22;;;;;;;;;;5028609;28;20223;-80
2022/04/02 00:20:57;;;;;;;2.05;1.70;;;;;;;;;;5030395;28;20207;-79
2022/04/02 00:23:39;;;;;;;1.40;1.30;;;;;;;;;;5029407;28;20191;-81
2022/04/02 00:26:06;;;;;;;3.67;1.83;;;;;;;;;;5028936;28;20215;-79
2022/04/02 00:28:34;;;;;;;2.50;1.58;;;;;;;;;;5023148;28;20199;-77
2022/04/02 00:31:05;;;;;;;1.58;1.48;;;;;;;;;;5027758;28;20199;-78
2022/04/02 00:33:32;;;;;;;2.35;1.70;;;;;;;;;;5029220;28;20199;-78
2022/04/02 00:36:00;;;;;;;2.72;1.50;;;;;;;;;;5029451;28;20191;-77
2022/04/02 00:38:27;;;;;;;2.35;1.77;;;;;;;;;;5029049;28;20195;-79
2022/04/02 00:40:54;;;;;;;1.60;1.42;;;;;;;;;;5028848;28;20582;-78
2022/04/02 00:43:22;;;;;;;1.85;1.50;;;;;;;;;;5033871;28;20200;-79
2022/04/02 00:45:49;;;;;;;1.77;1.33;;;;;;;;;;5033514;28;20265;-78
2022/04/02 00:48:16;;;;;;;3.33;1.88;;;;;;;;;;5027393;28;20203;-78
2022/04/02 00:50:45;;;;;;;2.47;1.60;;;;;;;;;;5034748;28;20665;-80
2022/04/02 00:53:14;;;;;;;1.40;1.17;;;;;;;;;;5027636;28;20227;-80
2022/04/02 00:55:42;;;;;;;1.40;1.30;;;;;;;;;;5034620;28;20191;-80
2022/04/02 00:58:11;;;;;;;2.05;1.30;;;;;;;;;;5030609;28;20597;-80
2022/04/02 01:00:38;;;;;;;3.67;1.95;;;;;;;;;;5030244;28;20216;-81
2022/04/02 01:03:05;;;;;;;1.98;1.80;;;;;;;;;;5031220;28;20654;-81
2022/04/02 01:05:33;;;;;;;2.10;1.50;;;;;;;;;;5035120;28;20195;-80
2022/04/02 01:08:01;;;;;;;2.20;1.30;;;;;;;;;;5034630;28;20431;-80
2022/04/02 01:10:29;;;;;;;2.88;1.38;;;;;;;;;;5031517;28;20196;-80
2022/04/02 01:12:56;;;;;;;1.52;1.30;;;;;;;;;;5033096;28;20196;-79
2022/04/02 01:15:24;;;;;;;1.60;1.42;;;;;;;;;;5032692;28;20191;-80
2022/04/02 01:17:52;;;;;;;1.90;1.70;;;;;;;;;;5027083;28;20192;-79
2022/04/02 01:20:19;;;;;;;1.50;1.20;;;;;;;;;;5034475;28;20211;-77
2022/04/02 01:22:48;;;;;;;2.38;1.20;;;;;;;;;;5033773;28;20196;-76
2022/04/02 01:25:15;;;;;;;2.88;1.90;;;;;;;;;;5033452;28;20227;-79
2022/04/02 01:27:43;;;;;;;1.55;1.20;;;;;;;;;;5032409;28;20199;-77
2022/04/02 01:30:13;;;;;;;6.15;1.60;;;;;;;;;;5031910;28;20199;-77
2022/04/02 01:32:40;;;;;;;2.03;1.50;;;;;;;;;;5029356;28;20203;-79
2022/04/02 01:35:08;;;;;;;1.63;1.35;;;;;;;;;;5032155;28;20192;-79
2022/04/02 01:37:35;;;;;;;3.58;1.60;;;;;;;;;;5033800;28;20659;-80
2022/04/02 01:40:04;;;;;;;2.28;1.15;;;;;;;;;;5027801;28;20211;-80
2022/04/02 01:42:31;;;;;;;2.20;1.17;;;;;;;;;;5031105;28;20666;-81
2022/04/02 01:44:59;;;;;;;1.50;1.20;;;;;;;;;;5032541;28;20203;-79
2022/04/02 01:47:26;;;;;;;1.65;1.45;;;;;;;;;;5032310;28;20970;-78
2022/04/02 01:49:53;;;;;;;5.15;1.80;;;;;;;;;;5029524;28;20199;-81
2022/04/02 01:52:20;;;;;;;2.13;1.60;;;;;;;;;;5033863;28;20196;-81
2022/04/02 01:54:48;;;;;;;3.03;1.65;;;;;;;;;;5031217;28;20191;-80
2022/04/02 01:57:17;;;;;;;2.05;1.30;;;;;;;;;;5023316;28;20204;-79
2022/04/02 01:59:47;;;;;;;2.90;1.35;;;;;;;;;;5033351;28;20192;-80
2022/04/02 02:02:15;;;;;;;3.08;1.85;;;;;;;;;;5029866;28;20223;-78
2022/04/02 02:04:42;;;;;;;2.25;1.50;;;;;;;;;;5030121;28;20661;-78
2022/04/02 02:07:09;;;;;;;1.50;1.40;;;;;;;;;;5032046;28;20231;-77
2022/04/02 02:09:37;;;;;;;2.17;1.27;;;;;;;;;;5032483;28;20195;-81
2022/04/02 02:12:04;;;;;;;2.33;1.90;;;;;;;;;;5026508;28;20199;-81
2022/04/02 02:14:33;;;;;;;1.88;1.33;;;;;;;;;;5032315;28;20227;-81
2022/04/02 02:17:00;;;;;;;2.67;1.63;;;;;;;;;;5031187;28;20202;-82
2022/04/02 02:19:27;;;;;;;2.38;1.30;;;;;;;;;;5029616;28;20196;-79
2022/04/02 02:21:54;;;;;;;2.53;1.30;;;;;;;;;;5028430;28;20242;-79
2022/04/02 02:24:21;;;;;;;4.85;1.40;;;;;;;;;;5031500;28;20211;-78
2022/04/02 02:26:48;;;;;;;1.63;1.17;;;;;;;;;;5030129;28;20222;-78
2022/04/02 02:29:15;;;;;;;1.40;1.30;;;;;;;;;;5032355;28;20200;-78
2022/04/02 02:31:44;;;;;;;2.60;1.45;;;;;;;;;;5032966;28;20218;-82
2022/04/02 02:36:56;;;;;;;1.38;1.10;;;;;;;;;;5030604;28;20199;-84
2022/04/02 02:39:23;;;;;;;1.45;1.35;;;;;;;;;;5033168;28;20204;-79
2022/04/02 02:41:50;;;;;;;1.80;1.48;;;;;;;;;;5026056;28;20215;-80
2022/04/02 02:44:17;;;;;;;1.55;1.33;;;;;;;;;;5031980;28;20195;-82
2022/04/02 02:46:46;;;;;;;1.45;1.25;;;;;;;;;;5029485;28;20238;-83
2022/04/02 02:49:13;;;;;;;2.45;1.25;;;;;;;;;;5025748;28;20207;-83
2022/04/02 02:51:40;;;;;;;2.50;1.40;;;;;;;;;;5032998;28;20188;-79
2022/04/02 02:54:07;;;;;;;2.55;1.35;;;;;;;;;;5033659;28;20211;-79
2022/04/02 02:56:34;;;;;;;1.45;1.20;;;;;;;;;;5032797;28;20200;-79
2022/04/02 02:59:01;;;;;;;1.48;1.10;;;;;;;;;;5034875;28;20191;-80
2022/04/02 03:01:28;;;;;;;2.05;1.38;;;;;;;;;;5029567;28;20215;-81
2022/04/02 03:03:57;;;;;;;2.00;1.30;;;;;;;;;;5029874;28;20198;-82
2022/04/02 03:06:24;;;;;;;2.47;1.23;;;;;;;;;;5029016;28;20219;-80
2022/04/02 03:08:51;;;;;;;1.60;1.40;;;;;;;;;;5030298;28;20562;-81
2022/04/02 03:11:18;;;;;;;3.70;1.60;;;;;;;;;;5032860;28;20198;-80
2022/04/02 03:13:45;;;;;;;1.30;1.10;;;;;;;;;;5021457;28;20199;-80
2022/04/02 03:16:13;;;;;;;2.60;1.20;;;;;;;;;;5030517;28;20287;-79
2022/04/02 03:18:40;;;;;;;2.78;1.30;;;;;;;;;;5020314;28;20200;-80
2022/04/02 03:21:09;;;;;;;4.88;1.60;;;;;;;;;;5015904;28;20586;-79
2022/04/02 03:23:37;;;;;;;1.90;1.50;;;;;;;;;;5024421;28;20536;-80
2022/04/02 03:26:04;;;;;;;1.77;1.40;;;;;;;;;;5027887;28;20693;-80
2022/04/02 03:28:31;;;;;;;6.75;1.40;;;;;;;;;;5026179;28;20198;-80
2022/04/02 03:30:58;;;;;;;3.85;1.50;;;;;;;;;;5028975;28;20586;-80
2022/04/02 03:33:26;;;;;;;2.30;1.88;;;;;;;;;;5019213;28;20471;-80
2022/04/02 03:35:53;;;;;;;2.50;1.40;;;;;;;;;;5018889;28;20242;-80
2022/04/02 03:38:22;;;;;;;7.15;1.35;;;;;;;;;;5025923;28;20605;-82
2022/04/02 03:40:49;;;;;;;1.30;1.08;;;;;;;;;;5031531;28;20211;-80
2022/04/02 03:43:16;;;;;;;2.10;1.42;;;;;;;;;;5026370;28;20317;-79
2022/04/02 03:45:43;;;;;;;1.55;1.13;;;;;;;;;;5030609;28;20202;-80
2022/04/02 03:48:10;;;;;;;7.70;1.50;;;;;;;;;;5025673;28;20200;-80
2022/04/02 03:50:37;;;;;;;3.60;1.42;;;;;;;;;;5030254;28;20192;-80
2022/04/02 03:53:04;;;;;;;1.73;1.50;;;;;;;;;;5030648;28;20202;-79
2022/04/02 03:55:33;;;;;;;1.70;1.60;;;;;;;;;;5030139;28;20192;-80
2022/04/02 03:58:00;;;;;;;2.15;1.67;;;;;;;;;;5028891;28;20674;-81
2022/04/02 04:00:27;;;;;;;1.60;1.30;;;;;;;;;;5029468;28;20238;-79
2022/04/02 04:02:54;;;;;;;2.70;1.33;;;;;;;;;;5025414;28;20718;-81
2022/04/02 04:05:23;;;;;;;3.00;1.55;;;;;;;;;;5031032;28;20199;-81
2022/04/02 04:07:50;;;;;;;4.03;1.58;;;;;;;;;;5031206;28;20188;-80
2022/04/02 04:10:17;;;;;;;4.00;1.10;;;;;;;;;;5030530;28;20195;-80
2022/04/02 04:12:45;;;;;;;2.20;1.40;;;;;;;;;;5029562;28;20231;-79
2022/04/02 04:15:12;;;;;;;2.90;1.65;;;;;;;;;;5030080;28;20192;-78
2022/04/02 04:17:41;;;;;;;1.80;1.23;;;;;;;;;;5025846;28;20187;-79
2022/04/02 04:20:10;;;;;;;1.70;1.30;;;;;;;;;;5031200;28;20199;-80
2022/04/02 04:22:38;;;;;;;5.50;1.90;;;;;;;;;;5029573;28;20273;-80
2022/04/02 04:25:05;;;;;;;1.90;1.58;;;;;;;;;;5028479;28;20223;-80
2022/04/02 04:27:33;;;;;;;1.70;1.40;;;;;;;;;;5030715;28;20226;-79
2022/04/02 04:30:01;;;;;;;1.50;1.10;;;;;;;;;;5029433;28;20195;-79
2022/04/02 04:32:28;;;;;;;1.45;1.35;;;;;;;;;;5030551;28;20227;-79
2022/04/02 04:34:55;;;;;;;1.10;1.00;;;;;;;;;;5027956;28;20206;-78
2022/04/02 04:37:22;;;;;;;2.30;1.23;;;;;;;;;;5029225;28;20192;-79
2022/04/02 04:39:49;;;;;;;2.67;1.40;;;;;;;;;;5030242;28;20195;-80
2022/04/02 04:42:17;;;;;;;2.40;1.52;;;;;;;;;;5020579;28;20219;-80
2022/04/02 04:44:44;;;;;;;2.15;1.83;;;;;;;;;;5027135;28;20551;-79
2022/04/02 04:47:12;;;;;;;1.58;1.42;;;;;;;;;;5029835;28;20191;-77
2022/04/02 04:49:39;;;;;;;2.20;1.52;;;;;;;;;;5025131;28;20191;-76
2022/04/02 04:52:07;;;;;;;1.90;1.73;;;;;;;;;;5029850;28;20218;-76
2022/04/02 04:54:34;;;;;;;1.98;1.20;;;;;;;;;;5026860;28;20752;-76
2022/04/02 04:57:01;;;;;;;1.60;1.35;;;;;;;;;;5029230;28;20206;-80
2022/04/02 04:59:28;;;;;;;1.70;1.48;;;;;;;;;;5029232;28;20558;-80
2022/04/02 05:01:55;;;;;;;1.70;1.35;;;;;;;;;;5028947;28;20214;-79
2022/04/02 05:04:23;;;;;;;1.42;1.20;;;;;;;;;;5025767;28;20192;-79
2022/04/02 05:06:50;;;;;;;1.50;1.40;;;;;;;;;;5028202;28;20200;-80
2022/04/02 05:09:17;;;;;;;1.70;1.50;;;;;;;;;;5028564;28;20589;-78
2022/04/02 05:11:44;;;;;;;2.40;1.70;;;;;;;;;;5022626;28;20200;-79
2022/04/02 05:14:13;;;;;;;1.83;1.63;;;;;;;;;;5022682;28;20196;-79
2022/04/02 05:16:41;;;;;;;1.92;1.20;;;;;;;;;;5029603;28;20199;-79
2022/04/02 05:19:08;;;;;;;2.10;1.30;;;;;;;;;;5026297;28;20199;-80
2022/04/02 05:21:36;;;;;;;2.28;1.42;;;;;;;;;;5028953;28;20261;-76
2022/04/02 05:24:03;;;;;;;1.58;1.40;;;;;;;;;;5027562;28;20214;-81
2022/04/02 05:26:30;;;;;;;1.58;1.10;;;;;;;;;;5030568;28;20195;-81
2022/04/02 05:28:59;;;;;;;1.80;1.50;;;;;;;;;;5028500;28;20203;-80
2022/04/02 05:31:26;;;;;;;2.00;1.80;;;;;;;;;;5032418;28;20659;-79
2022/04/02 05:33:54;;;;;;;1.40;1.30;;;;;;;;;;5025531;28;20230;-80
2022/04/02 05:36:21;;;;;;;4.07;2.90;;;;;;;;;;5034590;28;20388;-80
2022/04/02 05:38:50;;;;;;;1.50;1.17;;;;;;;;;;5031239;28;20196;-80
2022/04/02 05:41:17;;;;;;;2.45;1.65;;;;;;;;;;5031953;28;20199;-80
2022/04/02 05:43:44;;;;;;;1.60;1.25;;;;;;;;;;5032919;28;20192;-81
2022/04/02 05:46:11;;;;;;;2.08;1.48;;;;;;;;;;5031555;28;20195;-81
2022/04/02 05:48:39;;;;;;;1.92;1.27;;;;;;;;;;5028790;28;20266;-83
2022/04/02 05:51:06;;;;;;;5.65;1.40;;;;;;;;;;5031992;28;20207;-80
2022/04/02 05:53:33;;;;;;;1.95;1.20;;;;;;;;;;5033983;28;20543;-79
2022/04/02 05:56:01;;;;;;;1.40;1.30;;;;;;;;;;5033970;28;20191;-80
2022/04/02 05:58:29;;;;;;;2.10;1.70;;;;;;;;;;5031194;28;20198;-79
2022/04/02 06:00:56;;;;;;;3.67;1.55;;;;;;;;;;5030781;28;20200;-80
2022/04/02 06:03:23;;;;;;;2.25;1.63;;;;;;;;;;5030978;28;20215;-80
2022/04/02 06:05:50;;;;;;;2.20;1.30;;;;;;;;;;5033295;28;20191;-81
2022/04/02 06:08:17;;;;;;;2.65;1.35;;;;;;;;;;5028709;28;20662;-80
2022/04/02 06:10:45;;;;;;;5.70;2.38;;;;;;;;;;5029538;28;20566;-78
2022/04/02 06:13:13;;;;;;;1.90;1.30;;;;;;;;;;5026654;28;20246;-79
2022/04/02 06:15:41;;;;;;;3.15;1.42;;;;;;;;;;5031390;28;20191;-80
2022/04/02 06:18:08;;;;;;;1.38;1.27;;;;;;;;;;5026489;28;20200;-81
2022/04/02 06:20:35;;;;;;;2.22;1.65;;;;;;;;;;5032521;28;20206;-80
2022/04/02 06:23:02;;;;;;;2.38;1.30;;;;;;;;;;5030563;28;20219;-80
2022/04/02 06:25:29;;;;;;;1.80;1.42;;;;;;;;;;5033207;28;20219;-80
2022/04/02 06:27:56;;;;;;;1.55;1.17;;;;;;;;;;5030759;28;20200;-81
2022/04/02 06:30:24;;;;;;;2.03;1.50;;;;;;;;;;5030492;28;20199;-80
2022/04/02 06:32:52;;;;;;;1.40;1.20;;;;;;;;;;5028134;28;20694;-82
2022/04/02 06:35:19;;;;;;;2.83;1.65;;;;;;;;;;5030441;28;20204;-82
2022/04/02 06:37:47;;;;;;;2.88;1.67;;;;;;;;;;5029994;28;20187;-81
2022/04/02 06:40:14;;;;;;;2.30;1.48;;;;;;;;;;5031636;28;20209;-81
2022/04/02 06:42:41;;;;;;;2.63;1.50;;;;;;;;;;5024543;28;20219;-81
2022/04/02 06:45:08;;;;;;;1.73;1.63;;;;;;;;;;5029753;28;20203;-82
2022/04/02 06:47:37;;;;;;;3.42;1.98;;;;;;;;;;5026538;28;20195;-81
2022/04/02 06:50:05;;;;;;;1.70;1.48;;;;;;;;;;5031901;28;20196;-81
2022/04/02 06:52:32;;;;;;;3.20;1.85;;;;;;;;;;5031524;28;20192;-81
2022/04/02 06:54:59;;;;;;;3.50;2.10;;;;;;;;;;5031673;28;20191;-81
2022/04/02 06:57:27;;;;;;;1.80;1.70;;;;;;;;;;5028794;28;20196;-81
2022/04/02 06:59:54;;;;;;;1.60;1.50;;;;;;;;;;5028928;28;20286;-80
2022/04/02 07:02:21;;;;;;;1.85;1.50;;;;;;;;;;5031174;28;20223;-80
2022/04/02 07:04:50;;;;;;;2.15;1.83;;;;;;;;;;5031020;28;20662;-78
2022/04/02 07:07:17;;;;;;;2.15;1.95;;;;;;;;;;5031447;28;20651;-78
2022/04/02 07:09:44;;;;;;;1.65;1.55;;;;;;;;;;5023774;28;20267;-77
2022/04/02 07:12:12;;;;;;;2.70;1.63;;;;;;;;;;5025436;28;20200;-77
2022/04/02 07:14:39;;;;;;;2.17;1.40;;;;;;;;;;5029033;28;20200;-76
2022/04/02 07:17:06;;;;;;;2.25;1.75;;;;;;;;;;5030861;28;20235;-76
2022/04/02 07:19:34;;;;;;;2.45;1.88;;;;;;;;;;5021814;28;20289;-77
2022/04/02 07:22:02;;;;;;;2.15;1.63;;;;;;;;;;5023423;28;20223;-77
2022/04/02 07:24:31;;;;;;;3.17;1.45;;;;;;;;;;5021945;28;20617;-77
2022/04/02 07:26:58;;;;;;;2.97;1.88;;;;;;;;;;5021563;28;20214;-78
2022/04/02 07:29:27;;;;;;;4.30;1.70;;;;;;;;;;5023848;28;20199;-77
2022/04/02 07:31:54;;;;;;;2.50;1.67;;;;;;;;;;5019532;28;20219;-77
2022/04/02 07:34:21;;;;;;;4.95;1.90;;;;;;;;;;5020784;28;20196;-78
2022/04/02 07:36:55;;;;;;;5.25;2.00;;;;;;;;;;5021942;28;20705;-80
2022/04/02 07:39:27;;;;;;;2.67;2.25;;;;;;;;;;5027579;28;20200;-78
2022/04/02 07:41:59;;;;;;;2.03;1.83;;;;;;;;;;5025089;28;20543;-77
2022/04/02 07:44:31;;;;;;;3.15;2.45;;;;;;;;;;5029645;28;20690;-77
2022/04/02 07:46:59;;;;;;;2.45;2.00;;;;;;;;;;5025693;28;20656;-81
2022/04/02 07:49:28;;;;;;;3.20;2.15;;;;;;;;;;5030796;28;20198;-80
2022/04/02 07:51:56;;;;;;;2.30;2.10;;;;;;;;;;5032990;28;20192;-80
2022/04/02 07:54:26;;;;;;;2.15;1.70;;;;;;;;;;5032759;28;20200;-80
2022/04/02 07:56:56;;;;;;;5.78;2.83;;;;;;;;;;5026272;28;20216;-76
2022/04/02 07:59:27;;;;;;;2.90;1.73;;;;;;;;;;5024422;28;20658;-80
2022/04/02 08:01:55;;;;;;;2.40;2.20;;;;;;;;;;5029332;28;20192;-75
2022/04/02 08:04:22;;;;;;;2.63;2.42;;;;;;;;;;5020030;28;20202;-84
2022/04/02 08:06:50;;;;;;;2.53;2.13;;;;;;;;;;5032933;28;20202;-80
2022/04/02 08:09:17;;;;;;;2.63;2.40;;;;;;;;;;5026078;28;20693;-78
2022/04/02 08:11:48;;;;;;;2.13;1.92;;;;;;;;;;5024635;28;20222;-77
2022/04/02 08:14:16;;;;;;;2.80;2.15;;;;;;;;;;5027592;28;20204;-79
2022/04/02 08:16:44;;;;;;;3.05;2.30;;;;;;;;;;5027954;28;20200;-80
2022/04/02 08:19:12;;;;;;;2.65;1.95;;;;;;;;;;5018885;28;20685;-79
2022/04/02 08:21:39;;;;;;;5.80;2.40;;;;;;;;;;5028552;28;20196;-79
2022/04/02 08:24:07;;;;;;;1.85;1.65;;;;;;;;;;5027404;28;20238;-79
2022/04/02 08:26:38;;;;;;;2.22;1.80;;;;;;;;;;5016759;28;20200;-79
2022/04/02 08:29:20;;;;;;;2.08;1.73;;;;;;;;;;5030344;28;20203;-81
2022/04/02 08:31:54;;;;;;;4.07;2.30;;;;;;;;;;5024248;28;20637;-80
2022/04/02 08:34:23;;;;;;;3.17;1.98;;;;;;;;;;5025480;28;20242;-81
2022/04/02 08:36:55;;;;;;;3.03;2.13;;;;;;;;;;5027279;28;20650;-82
2022/04/02 08:39:27;;;;;;;2.38;2.17;;;;;;;;;;5031339;28;20601;-81
2022/04/02 08:42:21;;;;;;;2.83;2.30;;;;;;;;;;5027489;28;20194;-79
2022/04/02 08:45:03;;;;;;;2.63;2.30;;;;;;;;;;5020021;28;20196;-81
2022/04/02 08:48:04;;;;;;;3.75;2.35;;;;;;;;;;5012507;28;20199;-81
2022/04/02 08:50:31;;;;;;;3.13;2.28;;;;;;;;;;5029946;28;20195;-81
2022/04/02 08:53:02;;;;;;;2.80;2.10;;;;;;;;;;5022587;28;20939;-81
2022/04/02 08:55:34;;;;;;;2.78;2.47;;;;;;;;;;5030323;28;20192;-80
2022/04/02 08:58:11;;;;;;;3.28;2.30;;;;;;;;;;5017622;28;20254;-81
2022/04/02 09:00:42;;;;;;;2.13;1.85;;;;;;;;;;5025658;28;20539;-82
2022/04/02 09:03:24;;;;;;;5.22;2.10;;;;;;;;;;5026579;28;20226;-81
2022/04/02 09:05:57;;;;;;;3.05;1.95;;;;;;;;;;5027972;28;20188;-82
2022/04/02 09:08:40;;;;;;;4.30;2.80;;;;;;;;;;5022404;28;20199;-81
2022/04/02 09:11:23;;;;;;;1.95;1.73;;;;;;;;;;5029910;28;20191;-82
2022/04/02 09:14:11;;;;;;;5.47;3.05;;;;;;;;;;5032550;28;20214;-81
2022/04/02 09:16:46;;;;;;;2.25;1.83;;;;;;;;;;5025582;28;20203;-80
2022/04/02 09:19:15;;;;;;;4.80;2.58;;;;;;;;;;5023220;28;20198;-82
2022/04/02 09:21:51;;;;;;;4.95;2.72;;;;;;;;;;5029154;28;20208;-80
2022/04/02 09:24:25;;;;;;;4.05;2.20;;;;;;;;;;5031003;28;20237;-80
2022/04/02 09:26:59;;;;;;;3.20;2.33;;;;;;;;;;5028825;28;20654;-81
2022/04/02 09:29:28;;;;;;;2.70;2.40;;;;;;;;;;5033375;28;20192;-81
2022/04/02 09:32:16;;;;;;;2.35;1.88;;;;;;;;;;5030441;28;20231;-81
2022/04/02 09:35:10;;;;;;;3.40;2.17;;;;;;;;;;5032430;28;20196;-81
2022/04/02 09:37:49;;;;;;;2.88;2.15;;;;;;;;;;5032379;28;20214;-81
2022/04/02 09:40:19;;;;;;;7.45;2.60;;;;;;;;;;5026102;28;20199;-80
2022/04/02 09:42:47;;;;;;;2.95;2.35;;;;;;;;;;5036069;28;20223;-80
2022/04/02 09:45:14;;;;;;;2.92;2.45;;;;;;;;;;5030257;28;20188;-80
2022/04/02 09:47:55;;;;;;;2.92;2.60;;;;;;;;;;5030931;28;20192;-81
2022/04/02 09:50:24;;;;;;;4.57;2.75;;;;;;;;;;5034032;28;20203;-81
2022/04/02 09:52:55;;;;;;;2.88;2.30;;;;;;;;;;5032061;28;20224;-80
2022/04/02 09:55:23;;;;;;;3.80;2.70;;;;;;;;;;5033387;28;20188;-80
2022/04/02 09:58:14;;;;;;;2.88;2.05;;;;;;;;;;5019803;28;20195;-81
2022/04/02 10:00:43;;;;;;;5.68;2.83;;;;;;;;;;5022904;28;20230;-81
2022/04/02 10:03:13;;;;;;;3.00;2.25;;;;;;;;;;5027876;28;20243;-80
2022/04/02 10:05:54;;;;;;;6.80;2.65;;;;;;;;;;5014897;28;20259;-82
2022/04/02 10:08:35;;;;;;;3.95;2.35;;;;;;;;;;5031842;28;20586;-79
2022/04/02 10:11:03;;;;;;;2.13;1.63;;;;;;;;;;5034184;28;20206;-81
2022/04/02 10:13:32;;;;;;;4.13;2.33;;;;;;;;;;5024307;28;20196;-81
2022/04/02 10:16:00;;;;;;;6.88;3.00;;;;;;;;;;5032169;28;20192;-76
2022/04/02 10:18:28;;;;;;;3.05;2.50;;;;;;;;;;5029757;28;20195;-78
2022/04/02 10:20:55;;;;;;;3.05;1.80;;;;;;;;;;5033685;28;20191;-78
2022/04/02 10:23:24;;;;;;;3.17;2.17;;;;;;;;;;5032455;28;20574;-79
2022/04/02 10:26:03;;;;;;;2.60;2.40;;;;;;;;;;5032366;28;20254;-79
2022/04/02 10:28:32;;;;;;;3.08;2.40;;;;;;;;;;5028417;28;20196;-80
2022/04/02 10:30:59;;;;;;;2.95;2.22;;;;;;;;;;5032713;28;20195;-82
2022/04/02 10:33:27;;;;;;;3.33;2.50;;;;;;;;;;5025063;28;20579;-83
2022/04/02 10:35:55;;;;;;;3.50;2.25;;;;;;;;;;5025391;28;20200;-80
2022/04/02 10:38:33;;;;;;;3.63;2.10;;;;;;;;;;5024636;28;20200;-76
2022/04/02 10:41:00;;;;;;;3.83;2.40;;;;;;;;;;5025652;28;20242;-80
2022/04/02 10:43:28;;;;;;;2.85;2.03;;;;;;;;;;5025711;28;20223;-84
2022/04/02 10:45:56;;;;;;;3.78;2.47;;;;;;;;;;5026870;28;20205;-79
2022/04/02 10:48:28;;;;;;;2.83;2.38;;;;;;;;;;5024856;28;20658;-82
2022/04/02 10:50:55;;;;;;;3.85;2.28;;;;;;;;;;5029361;28;20196;-80
2022/04/02 10:53:23;;;;;;;3.67;3.38;;;;;;;;;;5033592;28;20204;-83
2022/04/02 10:55:58;;;;;;;4.22;2.60;;;;;;;;;;5043551;28;20196;-81
2022/04/02 10:58:25;;;;;;;2.80;2.38;;;;;;;;;;5019768;28;20259;-81
2022/04/02 11:00:55;;;;;;;2.40;1.90;;;;;;;;;;5029059;28;20585;-83
2022/04/02 11:03:29;;;;;;;4.57;1.88;;;;;;;;;;5026141;28;20247;-79
2022/04/02 11:05:57;;;;;;;3.28;2.38;;;;;;;;;;5029025;28;20253;-81
2022/04/02 11:08:30;;;;;;;3.95;3.20;;;;;;;;;;5026655;28;20278;-79
2022/04/02 11:10:59;;;;;;;3.38;2.60;;;;;;;;;;5026269;28;20526;-80
2022/04/02 11:13:29;;;;;;;2.65;2.20;;;;;;;;;;5029272;28;20196;-79
2022/04/02 11:15:57;;;;;;;6.43;2.55;;;;;;;;;;5029307;28;20252;-83
2022/04/02 11:18:25;;;;;;;3.30;3.00;;;;;;;;;;5026331;28;20231;-83
2022/04/02 11:20:52;;;;;;;2.97;2.60;;;;;;;;;;5024509;28;20235;-82
2022/04/02 11:23:23;;;;;;;3.45;2.30;;;;;;;;;;5025278;28;20223;-82
2022/04/02 11:25:54;;;;;;;2.63;2.42;;;;;;;;;;5028795;28;20660;-83
2022/04/02 11:28:24;;;;;;;4.15;2.63;;;;;;;;;;5025415;28;20203;-80
2022/04/02 11:30:52;;;;;;;2.92;2.63;;;;;;;;;;5025514;28;20204;-82
2022/04/02 11:33:20;;;;;;;4.32;2.83;;;;;;;;;;5019926;28;20219;-82
2022/04/02 11:35:48;;;;;;;3.97;3.15;;;;;;;;;;5025202;28;20203;-81
2022/04/02 11:38:29;;;;;;;5.45;3.13;;;;;;;;;;5026282;28;20194;-84
2022/04/02 11:40:57;;;;;;;3.03;2.72;;;;;;;;;;5029162;28;20701;-79
2022/04/02 11:43:33;;;;;;;3.22;2.47;;;;;;;;;;5025189;28;20549;-80
2022/04/02 11:46:00;;;;;;;2.67;2.20;;;;;;;;;;5025079;28;20257;-81
2022/04/02 11:48:31;;;;;;;6.10;2.47;;;;;;;;;;5017283;28;20204;-83
2022/04/02 11:51:11;;;;;;;3.05;2.40;;;;;;;;;;5028732;28;20215;-82
2022/04/02 11:53:40;;;;;;;3.80;2.80;;;;;;;;;;5015022;28;20671;-82
2022/04/02 11:56:22;;;;;;;3.40;2.47;;;;;;;;;;5021601;28;20507;-81
2022/04/02 11:58:51;;;;;;;2.45;2.25;;;;;;;;;;5011965;28;20294;-80
2022/04/02 12:01:20;;;;;;;2.55;2.22;;;;;;;;;;5025464;28;20199;-81
2022/04/02 12:03:48;;;;;;;2.28;2.00;;;;;;;;;;5025170;28;20219;-79
2022/04/02 12:06:15;;;;;;;2.60;2.40;;;;;;;;;;5028121;28;20777;-81
2022/04/02 12:08:43;;;;;;;2.30;2.10;;;;;;;;;;5029106;28;20278;-79
2022/04/02 12:11:12;;;;;;;3.20;2.78;;;;;;;;;;5021113;28;20740;-82
2022/04/02 12:13:41;;;;;;;8.68;2.97;;;;;;;;;;5019245;28;20207;-81
2022/04/02 12:16:13;;;;;;;4.13;2.60;;;;;;;;;;5023318;28;20254;-81
2022/04/02 12:18:53;;;;;;;2.85;2.45;;;;;;;;;;5020361;28;20514;-84
2022/04/02 12:21:31;;;;;;;6.70;3.25;;;;;;;;;;5026661;28;20191;-84
2022/04/02 12:24:00;;;;;;;3.60;2.55;;;;;;;;;;5024283;28;20231;-80
2022/04/02 12:26:28;;;;;;;5.15;2.65;;;;;;;;;;5021343;28;20215;-83
2022/04/02 12:28:57;;;;;;;2.33;2.13;;;;;;;;;;5023269;28;20200;-81
2022/04/02 12:31:27;;;;;;;3.28;2.95;;;;;;;;;;5025528;28;20202;-84
2022/04/02 12:33:55;;;;;;;2.55;2.35;;;;;;;;;;5025485;28;20199;-81
2022/04/02 12:36:29;;;;;;;2.47;2.28;;;;;;;;;;5022925;28;20686;-81
2022/04/02 12:39:00;;;;;;;4.40;2.10;;;;;;;;;;5027455;28;20187;-81
2022/04/02 12:41:28;;;;;;;2.38;2.20;;;;;;;;;;5026629;28;20197;-82
2022/04/02 12:43:59;;;;;;;1.80;1.70;;;;;;;;;;5023779;28;20459;-81
2022/04/02 12:46:28;;;;;;;3.08;1.95;;;;;;;;;;5024106;28;20196;-81
2022/04/02 12:48:55;;;;;;;3.05;2.58;;;;;;;;;;5022980;28;20195;-82
2022/04/02 12:51:23;;;;;;;2.72;2.45;;;;;;;;;;5022683;28;20196;-83
2022/04/02 12:53:52;;;;;;;4.03;1.90;;;;;;;;;;5025254;28;20278;-80
2022/04/02 12:56:21;;;;;;;2.65;2.40;;;;;;;;;;5021205;28;20471;-81
2022/04/02 12:58:49;;;;;;;2.80;2.53;;;;;;;;;;5023000;28;20230;-81
2022/04/02 13:01:17;;;;;;;2.88;2.67;;;;;;;;;;5016454;28;20737;-82
2022/04/02 13:03:46;;;;;;;3.40;2.50;;;;;;;;;;5027678;28;20222;-82
2022/04/02 13:06:17;;;;;;;2.40;2.20;;;;;;;;;;5025454;28;20198;-84
2022/04/02 13:08:54;;;;;;;2.58;2.15;;;;;;;;;;5023411;28;20191;-75
2022/04/02 13:11:32;;;;;;;3.20;2.67;;;;;;;;;;5027794;28;20195;-75
2022/04/02 13:14:03;;;;;;;4.15;2.40;;;;;;;;;;5012572;28;20273;-73
2022/04/02 13:16:36;;;;;;;2.60;2.40;;;;;;;;;;5019769;28;20192;-74
2022/04/02 13:21:51;;;;;;;5.05;2.40;;;;;;;;;;5022560;28;20677;-73
2022/04/02 13:24:28;;;;;;;3.13;2.38;;;;;;;;;;5019724;28;20598;-73
2022/04/02 13:27:02;;;;;;;2.88;1.73;;;;;;;;;;5024635;28;20677;-73
2022/04/02 13:29:34;;;;;;;2.58;2.20;;;;;;;;;;5011909;28;20567;-75
2022/04/02 13:32:05;;;;;;;2.90;1.80;;;;;;;;;;5021728;28;20219;-84
2022/04/02 13:34:41;;;;;;;2.30;2.03;;;;;;;;;;5027403;28;20207;-84
2022/04/02 13:37:15;;;;;;;1.65;1.55;;;;;;;;;;5031057;28;20195;-84
2022/04/02 13:39:42;;;;;;;3.00;2.08;;;;;;;;;;5026371;28;20194;-83
2022/04/02 13:42:12;;;;;;;2.35;1.67;;;;;;;;;;5019774;28;20207;-83
2022/04/02 13:44:44;;;;;;;3.22;1.70;;;;;;;;;;5015652;28;20215;-83
2022/04/02 13:47:12;;;;;;;6.55;2.15;;;;;;;;;;5020478;28;20813;-82
2022/04/02 13:49:44;;;;;;;3.90;2.22;;;;;;;;;;5024227;28;20207;-81
2022/04/02 13:52:12;;;;;;;4.05;2.45;;;;;;;;;;5024737;28;20538;-79
2022/04/02 13:54:48;;;;;;;2.15;1.73;;;;;;;;;;5030049;28;20202;-82
2022/04/02 13:57:18;;;;;;;1.70;1.58;;;;;;;;;;5013172;28;20958;-82
2022/04/02 13:59:53;;;;;;;1.60;1.48;;;;;;;;;;5017652;28;20223;-80
2022/04/02 14:02:24;;;;;;;1.80;1.60;;;;;;;;;;5026297;28;20241;-81
2022/04/02 14:05:02;;;;;;;2.20;1.75;;;;;;;;;;5029200;28;20226;-78
2022/04/02 14:07:31;;;;;;;2.42;1.50;;;;;;;;;;5030116;28;20227;-80
2022/04/02 14:10:02;;;;;;;2.38;1.77;;;;;;;;;;5029251;28;20224;-78
2022/04/02 14:12:35;;;;;;;2.20;1.30;;;;;;;;;;5023883;28;20192;-78
2022/04/02 14:15:08;;;;;;;3.83;2.40;;;;;;;;;;5028865;28;20880;-78
2022/04/02 14:17:40;;;;;;;3.22;1.75;;;;;;;;;;5028841;28;20195;-80
2022/04/02 14:20:10;;;;;;;2.97;1.83;;;;;;;;;;5028580;28;20199;-79
2022/04/02 14:22:44;;;;;;;1.42;1.33;;;;;;;;;;5033314;28;20486;-77
2022/04/02 14:25:15;;;;;;;2.10;1.30;;;;;;;;;;5026423;28;20237;-80
2022/04/02 14:27:57;;;;;;;2.60;1.75;;;;;;;;;;5025150;28;20191;-80
2022/04/02 14:30:29;;;;;;;2.20;1.58;;;;;;;;;;5025481;28;20192;-80
2022/04/02 14:33:26;;;;;;;1.65;1.40;;;;;;;;;;5016507;28;20204;-78
2022/04/02 14:36:14;;;;;;;1.20;1.10;;;;;;;;;;4989042;28;20197;-77
2022/04/02 14:38:59;;;;;;;1.80;1.50;;;;;;;;;;5011717;28;20196;-79
2022/04/02 14:41:37;;;;;;;1.45;1.20;;;;;;;;;;5017572;28;20204;-78
2022/04/02 14:44:25;;;;;;;1.35;1.23;;;;;;;;;;5028401;28;20203;-79
2022/04/02 14:47:10;;;;;;;1.73;1.60;;;;;;;;;;5025008;28;20204;-80
2022/04/02 14:49:58;;;;;;;2.10;1.35;;;;;;;;;;5028424;28;20195;-81
2022/04/02 14:52:35;;;;;;;1.50;1.38;;;;;;;;;;5010395;28;20208;-80
2022/04/02 14:55:29;;;;;;;1.85;1.60;;;;;;;;;;5026570;28;20693;-79
2022/04/02 14:58:15;;;;;;;2.47;1.55;;;;;;;;;;5017024;28;20202;-82
2022/04/02 15:01:05;;;;;;;2.28;1.40;;;;;;;;;;5017411;28;20196;-82
2022/04/02 15:03:49;;;;;;;3.72;1.60;;;;;;;;;;5022208;28;20195;-82
2022/04/02 15:06:27;;;;;;;3.15;1.38;;;;;;;;;;5029669;28;20474;-80